createdAt,value
2018-08-10T00:01:42.392Z,0.87
2018-08-10T00:04:10.631Z,0.80
2018-08-10T00:06:39.641Z,0.80
2018-08-10T00:09:07.918Z,1.00
2018-08-10T00:11:37.027Z,0.70
2018-08-10T00:14:05.262Z,0.77
2018-08-10T00:16:34.276Z,0.73
2018-08-10T00:19:03.395Z,0.73
2018-08-10T00:21:31.630Z,0.97
2018-08-10T00:24:00.721Z,0.70
2018-08-10T00:26:28.933Z,0.53
2018-08-10T00:28:57.174Z,0.80
2018-08-10T00:31:26.619Z,0.70
2018-08-10T00:33:54.863Z,0.60
2018-08-10T00:36:24.026Z,0.50
2018-08-10T00:38:52.261Z,0.40
2018-08-10T00:41:20.497Z,0.60
2018-08-10T00:43:49.926Z,0.53
2018-08-10T00:46:18.170Z,0.50
2018-08-10T00:48:47.171Z,0.50
2018-08-10T00:51:16.226Z,0.40
2018-08-10T00:53:44.461Z,0.40
2018-08-10T00:56:12.710Z,0.50
2018-08-10T00:58:41.709Z,0.60
2018-08-10T01:01:11.029Z,0.50
2018-08-10T01:03:39.276Z,0.50
2018-08-10T01:06:08.279Z,0.33
2018-08-10T01:08:37.297Z,0.70
2018-08-10T01:11:05.561Z,0.57
2018-08-10T01:13:33.821Z,0.50
2018-08-10T01:16:02.049Z,0.50
2018-08-10T01:18:30.299Z,0.50
2018-08-10T01:20:58.550Z,0.40
2018-08-10T01:23:26.791Z,0.40
2018-08-10T01:25:55.043Z,0.50
2018-08-10T01:28:23.334Z,0.50
2018-08-10T01:30:52.284Z,0.53
2018-08-10T01:33:20.529Z,0.30
2018-08-10T01:35:49.532Z,0.40
2018-08-10T01:38:17.840Z,0.40
2018-08-10T01:40:46.114Z,0.40
2018-08-10T01:43:14.642Z,0.40
2018-08-10T01:45:43.665Z,0.50
2018-08-10T01:48:11.906Z,0.40
2018-08-10T01:50:40.159Z,0.40
2018-08-10T01:53:08.400Z,0.37
2018-08-10T01:55:36.798Z,0.47
2018-08-10T01:58:05.043Z,0.40
2018-08-10T02:00:33.281Z,0.57
2018-08-10T02:03:01.521Z,0.33
2018-08-10T02:05:29.771Z,0.30
2018-08-10T02:07:58.018Z,0.50
2018-08-10T02:10:27.034Z,0.37
2018-08-10T02:12:55.280Z,0.40
2018-08-10T02:15:24.292Z,0.40
2018-08-10T02:17:53.302Z,0.40
2018-08-10T02:20:21.873Z,0.30
2018-08-10T02:22:50.110Z,0.40
2018-08-10T02:25:18.350Z,0.50
2018-08-10T02:27:46.597Z,0.40
2018-08-10T02:30:14.850Z,0.50
2018-08-10T02:32:43.867Z,0.50
2018-08-10T02:35:12.106Z,0.50
2018-08-10T02:37:40.495Z,0.40
2018-08-10T02:40:09.514Z,0.50
2018-08-10T02:42:37.752Z,0.40
2018-08-10T02:45:06.025Z,0.40
2018-08-10T02:47:34.242Z,0.63
2018-08-10T02:50:02.493Z,0.40
2018-08-10T02:52:31.494Z,0.33
2018-08-10T02:54:59.740Z,0.43
2018-08-10T02:57:27.994Z,0.50
2018-08-10T02:59:56.226Z,0.60
2018-08-10T03:02:24.520Z,0.57
2018-08-10T03:04:52.750Z,0.50
2018-08-10T03:07:21.766Z,0.30
2018-08-10T03:09:50.007Z,0.60
2018-08-10T03:12:18.245Z,0.60
2018-08-10T03:14:46.518Z,0.50
2018-08-10T03:17:14.749Z,0.43
2018-08-10T03:19:42.990Z,0.50
2018-08-10T03:22:11.295Z,0.60
2018-08-10T03:24:39.489Z,0.70
2018-08-10T03:27:07.742Z,0.50
2018-08-10T03:29:36.746Z,0.73
2018-08-10T03:32:05.001Z,0.50
2018-08-10T03:34:33.634Z,0.40
2018-08-10T03:37:01.882Z,0.60
2018-08-10T03:39:30.695Z,0.50
2018-08-10T03:41:58.928Z,0.50
2018-08-10T03:44:27.946Z,0.57
2018-08-10T03:46:56.184Z,0.60
2018-08-10T03:49:24.471Z,0.50
2018-08-10T03:51:53.484Z,0.50
2018-08-10T03:54:21.727Z,0.60
2018-08-10T03:56:49.999Z,0.70
2018-08-10T03:59:18.240Z,0.60
2018-08-10T04:01:46.487Z,0.50
2018-08-10T04:04:15.035Z,0.60
2018-08-10T04:06:43.285Z,0.47
2018-08-10T04:09:11.522Z,0.80
2018-08-10T04:11:39.765Z,0.50
2018-08-10T04:14:08.773Z,0.53
2018-08-10T04:16:37.279Z,0.67
2018-08-10T04:19:05.517Z,0.70
2018-08-10T04:21:34.513Z,0.70
2018-08-10T04:24:02.782Z,0.60
2018-08-10T04:26:32.093Z,0.60
2018-08-10T04:29:00.334Z,0.70
2018-08-10T04:31:28.566Z,0.73
2018-08-10T04:33:56.832Z,0.60
2018-08-10T04:36:25.058Z,0.70
2018-08-10T04:38:53.294Z,0.53
2018-08-10T04:41:21.553Z,0.77
2018-08-10T04:43:49.806Z,0.77
2018-08-10T04:46:18.819Z,0.60
2018-08-10T04:48:47.062Z,0.60
2018-08-10T04:51:15.310Z,0.60
2018-08-10T04:53:44.024Z,0.70
2018-08-10T04:56:12.234Z,0.70
2018-08-10T04:58:40.481Z,0.50
2018-08-10T05:01:09.489Z,0.50
2018-08-10T05:03:37.744Z,0.50
2018-08-10T05:06:06.750Z,0.70
2018-08-10T05:08:35.003Z,0.50
2018-08-10T05:11:03.242Z,0.60
2018-08-10T05:13:31.500Z,0.60
2018-08-10T05:15:59.745Z,0.60
2018-08-10T05:18:29.165Z,0.73
2018-08-10T05:20:58.177Z,0.40
2018-08-10T05:23:26.431Z,0.60
2018-08-10T05:25:54.703Z,0.60
2018-08-10T05:28:22.984Z,0.80
2018-08-10T05:30:51.254Z,0.70
2018-08-10T05:33:20.257Z,0.40
2018-08-10T05:35:48.493Z,0.60
2018-08-10T05:38:17.530Z,0.70
2018-08-10T05:40:45.770Z,0.70
2018-08-10T05:43:14.790Z,0.63
2018-08-10T05:45:43.040Z,0.60
2018-08-10T05:48:11.313Z,0.83
2018-08-10T05:50:40.312Z,0.80
2018-08-10T05:53:09.314Z,0.60
2018-08-10T05:55:37.581Z,0.83
2018-08-10T05:58:05.829Z,0.80
2018-08-10T06:00:34.322Z,0.60
2018-08-10T06:03:02.506Z,0.63
2018-08-10T06:05:30.911Z,1.00
2018-08-10T06:07:59.165Z,0.70
2018-08-10T06:10:27.418Z,0.70
2018-08-10T06:12:55.674Z,0.70
2018-08-10T06:15:23.951Z,0.60
2018-08-10T06:17:52.175Z,0.80
2018-08-10T06:20:20.442Z,0.53
2018-08-10T06:22:48.749Z,0.60
2018-08-10T06:25:17.690Z,0.70
2018-08-10T06:27:46.767Z,0.80
2018-08-10T06:30:14.983Z,0.63
2018-08-10T06:32:43.232Z,0.50
2018-08-10T06:35:12.233Z,0.90
2018-08-10T06:37:41.245Z,0.70
2018-08-10T06:40:09.494Z,0.70
2018-08-10T06:42:37.959Z,0.70
2018-08-10T06:45:06.323Z,0.83
2018-08-10T06:47:34.411Z,0.90
2018-08-10T06:50:03.450Z,0.80
2018-08-10T06:52:31.980Z,0.70
2018-08-10T06:55:00.238Z,0.90
2018-08-10T06:57:28.762Z,0.97
2018-08-10T06:59:57.026Z,0.77
2018-08-10T07:02:26.053Z,0.90
2018-08-10T07:04:54.304Z,0.90
2018-08-10T07:07:22.569Z,0.70
2018-08-10T07:09:51.679Z,0.80
2018-08-10T07:12:19.927Z,0.70
2018-08-10T07:14:48.934Z,0.90
2018-08-10T07:17:17.196Z,0.73
2018-08-10T07:19:46.219Z,0.67
2018-08-10T07:22:15.217Z,0.80
2018-08-10T07:24:43.553Z,0.77
2018-08-10T07:27:12.677Z,1.00
2018-08-10T07:29:41.552Z,0.70
2018-08-10T07:32:10.723Z,1.00
2018-08-10T07:34:38.945Z,1.00
2018-08-10T07:37:07.192Z,0.90
2018-08-10T07:39:36.507Z,0.70
2018-08-10T07:42:04.772Z,0.90
2018-08-10T07:44:33.783Z,0.67
2018-08-10T07:47:02.040Z,0.70
2018-08-10T07:49:31.064Z,0.90
2018-08-10T07:51:59.632Z,0.70
2018-08-10T07:54:28.660Z,0.60
2018-08-10T07:56:56.908Z,0.83
2018-08-10T07:59:25.138Z,0.90
2018-08-10T08:01:53.651Z,0.90
2018-08-10T08:04:21.895Z,1.20
2018-08-10T08:06:50.201Z,0.90
2018-08-10T08:09:18.382Z,0.73
2018-08-10T08:11:46.622Z,0.60
2018-08-10T08:14:15.646Z,0.73
2018-08-10T08:16:43.897Z,0.73
2018-08-10T08:19:12.907Z,1.10
2018-08-10T08:21:41.491Z,1.07
2018-08-10T08:24:09.733Z,1.10
2018-08-10T08:26:38.745Z,0.80
2018-08-10T08:29:09.490Z,0.80
2018-08-10T08:31:37.686Z,0.70
2018-08-10T08:34:05.962Z,0.63
2018-08-10T08:36:34.211Z,0.90
2018-08-10T08:39:07.273Z,0.60
2018-08-10T08:41:36.314Z,1.00
2018-08-10T08:44:16.287Z,0.83
2018-08-10T08:46:44.541Z,0.93
2018-08-10T08:49:12.787Z,1.10
2018-08-10T08:51:41.051Z,0.87
2018-08-10T08:54:10.400Z,0.90
2018-08-10T08:56:40.080Z,0.97
2018-08-10T08:59:10.463Z,0.90
2018-08-10T09:01:39.700Z,1.00
2018-08-10T09:04:23.690Z,0.90
2018-08-10T09:06:53.333Z,0.80
2018-08-10T09:09:34.196Z,1.10
2018-08-10T09:12:02.700Z,0.73
2018-08-10T09:14:38.131Z,1.17
2018-08-10T09:17:06.570Z,1.00
2018-08-10T09:19:34.756Z,1.00
2018-08-10T09:22:03.020Z,0.70
2018-08-10T09:24:31.267Z,1.20
2018-08-10T09:26:59.615Z,0.90
2018-08-10T09:29:28.018Z,1.10
2018-08-10T09:31:56.324Z,1.13
2018-08-10T09:34:24.725Z,1.13
2018-08-10T09:36:53.777Z,0.80
2018-08-10T09:39:22.205Z,1.37
2018-08-10T09:41:50.539Z,0.90
2018-08-10T09:44:18.772Z,0.87
2018-08-10T09:46:47.046Z,0.80
2018-08-10T09:49:15.302Z,0.83
2018-08-10T09:51:44.314Z,0.90
2018-08-10T09:54:12.572Z,1.10
2018-08-10T09:56:40.819Z,0.80
2018-08-10T09:59:09.071Z,0.90
2018-08-10T10:01:37.415Z,1.00
2018-08-10T10:04:05.632Z,1.00
2018-08-10T10:06:33.956Z,0.80
2018-08-10T10:09:02.224Z,0.83
2018-08-10T10:11:31.477Z,0.90
2018-08-10T10:13:59.723Z,0.90
2018-08-10T10:16:27.991Z,0.97
2018-08-10T10:18:56.535Z,0.83
2018-08-10T10:21:24.778Z,1.00
2018-08-10T10:23:53.062Z,0.60
2018-08-10T10:26:22.083Z,0.90
2018-08-10T10:28:50.364Z,0.80
2018-08-10T10:31:18.634Z,0.80
2018-08-10T10:33:46.892Z,0.80
2018-08-10T10:36:15.147Z,0.70
2018-08-10T10:38:43.399Z,0.90
2018-08-10T10:41:11.661Z,0.70
2018-08-10T10:43:39.925Z,0.80
2018-08-10T10:46:08.954Z,0.90
2018-08-10T10:48:37.224Z,0.80
2018-08-10T10:51:05.509Z,0.93
2018-08-10T10:53:33.759Z,1.00
2018-08-10T10:56:03.080Z,0.77
2018-08-10T10:58:31.326Z,1.00
2018-08-10T11:00:59.618Z,1.07
2018-08-10T11:03:27.869Z,1.00
2018-08-10T11:05:56.898Z,0.70
2018-08-10T11:08:25.152Z,0.90
2018-08-10T11:10:53.430Z,0.90
2018-08-10T11:13:21.690Z,0.80
2018-08-10T11:15:50.730Z,1.00
2018-08-10T11:18:18.970Z,0.80
2018-08-10T11:20:47.224Z,0.80
2018-08-10T11:23:15.486Z,0.67
2018-08-10T11:25:44.541Z,0.70
2018-08-10T11:28:12.862Z,0.80
2018-08-10T11:30:41.899Z,0.80
2018-08-10T11:33:10.151Z,0.80
2018-08-10T11:35:38.415Z,0.60
2018-08-10T11:38:07.448Z,0.80
2018-08-10T11:40:35.692Z,0.73
2018-08-10T11:43:03.991Z,0.73
2018-08-10T11:45:32.258Z,0.70
2018-08-10T11:48:00.519Z,0.70
2018-08-10T11:50:29.024Z,0.70
2018-08-10T11:52:57.287Z,0.70
2018-08-10T11:55:25.539Z,0.63
2018-08-10T11:57:54.584Z,0.70
2018-08-10T12:00:22.869Z,0.60
2018-08-10T12:02:51.149Z,0.70
2018-08-10T12:05:19.471Z,0.60
2018-08-10T12:07:47.766Z,0.80
2018-08-10T12:10:16.039Z,0.80
2018-08-10T12:12:44.322Z,0.80
2018-08-10T12:15:12.974Z,0.77
2018-08-10T12:17:41.220Z,0.70
2018-08-10T12:20:09.516Z,0.83
2018-08-10T12:22:38.540Z,0.80
2018-08-10T12:25:06.812Z,0.70
2018-08-10T12:27:35.156Z,0.80
2018-08-10T12:30:03.373Z,0.90
2018-08-10T12:32:31.930Z,0.70
2018-08-10T12:35:00.931Z,0.70
2018-08-10T12:37:29.184Z,0.70
2018-08-10T12:39:58.229Z,0.63
2018-08-10T12:42:26.496Z,0.77
2018-08-10T12:44:54.810Z,0.70
2018-08-10T12:47:23.059Z,0.60
2018-08-10T12:49:51.358Z,0.80
2018-08-10T12:52:19.615Z,0.60
2018-08-10T12:54:47.942Z,0.80
2018-08-10T12:57:16.517Z,0.70
2018-08-10T12:59:45.542Z,1.30
2018-08-10T13:02:13.845Z,1.23
2018-08-10T13:04:42.885Z,0.77
2018-08-10T13:07:11.176Z,0.70
2018-08-10T13:09:39.432Z,0.77
2018-08-10T13:12:08.446Z,0.67
2018-08-10T13:14:36.723Z,0.93
2018-08-10T13:17:05.832Z,0.60
2018-08-10T13:19:35.984Z,0.70
2018-08-10T13:22:04.376Z,0.73
2018-08-10T13:24:32.633Z,0.70
2018-08-10T13:27:00.891Z,0.60
2018-08-10T13:29:29.196Z,0.60
2018-08-10T13:31:57.471Z,0.77
2018-08-10T13:34:25.710Z,0.67
2018-08-10T13:36:54.999Z,0.70
2018-08-10T13:39:23.269Z,0.70
2018-08-10T13:41:51.532Z,0.43
2018-08-10T13:44:19.805Z,0.60
2018-08-10T13:46:48.050Z,0.70
2018-08-10T13:49:17.496Z,0.70
2018-08-10T13:51:46.900Z,0.80
2018-08-10T13:54:15.989Z,0.70
2018-08-10T13:56:44.219Z,0.60
2018-08-10T13:59:12.478Z,0.80
2018-08-10T14:01:40.726Z,0.70
2018-08-10T14:04:08.975Z,0.97
2018-08-10T14:06:37.327Z,0.57
2018-08-10T14:09:05.510Z,0.70
2018-08-10T14:11:34.531Z,0.87
2018-08-10T14:14:02.799Z,0.60
2018-08-10T14:16:31.071Z,0.70
2018-08-10T14:18:59.337Z,0.73
2018-08-10T14:21:27.609Z,0.70
2018-08-10T14:23:56.622Z,0.70
2018-08-10T14:26:24.870Z,0.57
2018-08-10T14:28:53.129Z,0.80
2018-08-10T14:31:22.167Z,0.80
2018-08-10T14:33:50.418Z,0.60
2018-08-10T14:36:18.699Z,0.70
2018-08-10T14:38:47.694Z,0.70
2018-08-10T14:41:15.982Z,0.80
2018-08-10T14:43:44.225Z,0.60
2018-08-10T14:46:13.245Z,0.70
2018-08-10T14:48:41.497Z,0.80
2018-08-10T14:51:09.751Z,0.60
2018-08-10T14:53:38.147Z,0.60
2018-08-10T14:56:06.355Z,0.70
2018-08-10T14:58:34.606Z,0.67
2018-08-10T15:01:02.860Z,0.90
2018-08-10T15:03:31.885Z,0.80
2018-08-10T15:06:00.174Z,0.60
2018-08-10T15:08:28.427Z,0.50
2018-08-10T15:10:56.692Z,0.60
2018-08-10T15:13:25.694Z,0.70
2018-08-10T15:15:54.043Z,0.70
2018-08-10T15:18:22.356Z,0.63
2018-08-10T15:20:50.546Z,0.60
2018-08-10T15:23:18.799Z,1.00
2018-08-10T15:25:47.079Z,0.90
2018-08-10T15:28:15.333Z,0.80
2018-08-10T15:30:44.456Z,0.70
2018-08-10T15:33:13.458Z,0.70
2018-08-10T15:35:41.694Z,0.70
2018-08-10T15:38:10.753Z,0.50
2018-08-10T15:40:38.970Z,0.80
2018-08-10T15:43:07.232Z,0.80
2018-08-10T15:45:36.242Z,0.93
2018-08-10T15:48:04.480Z,0.70
2018-08-10T15:50:33.127Z,0.80
2018-08-10T15:53:01.375Z,0.80
2018-08-10T15:55:29.622Z,0.80
2018-08-10T15:57:58.953Z,0.63
2018-08-10T16:00:27.212Z,0.73
2018-08-10T16:02:56.227Z,0.73
2018-08-10T16:05:24.490Z,0.77
2018-08-10T16:07:52.743Z,0.80
2018-08-10T16:10:21.770Z,0.70
2018-08-10T16:12:50.059Z,0.60
2018-08-10T16:15:18.305Z,0.70
2018-08-10T16:17:46.555Z,0.70
2018-08-10T16:20:15.575Z,0.60
2018-08-10T16:22:43.914Z,0.80
2018-08-10T16:25:12.195Z,0.63
2018-08-10T16:27:40.721Z,0.80
2018-08-10T16:30:08.977Z,0.70
2018-08-10T16:32:37.241Z,0.60
2018-08-10T16:35:06.251Z,0.70
2018-08-10T16:37:34.521Z,0.87
2018-08-10T16:40:03.835Z,0.60
2018-08-10T16:42:32.094Z,0.80
2018-08-10T16:45:01.134Z,0.70
2018-08-10T16:47:29.923Z,0.80
2018-08-10T16:49:58.149Z,0.70
2018-08-10T16:52:26.402Z,0.60
2018-08-10T16:54:54.658Z,0.70
2018-08-10T16:57:22.902Z,0.70
2018-08-10T16:59:51.262Z,0.73
2018-08-10T17:02:19.521Z,0.70
2018-08-10T17:04:48.534Z,0.80
2018-08-10T17:07:16.951Z,0.80
2018-08-10T17:09:45.249Z,0.70
2018-08-10T17:12:13.506Z,0.80
2018-08-10T17:14:41.752Z,0.80
2018-08-10T17:17:10.004Z,0.80
2018-08-10T17:19:38.297Z,0.80
2018-08-10T17:22:06.555Z,0.80
2018-08-10T17:24:34.853Z,0.70
2018-08-10T17:27:03.248Z,1.00
2018-08-10T17:29:31.490Z,0.70
2018-08-10T17:31:59.805Z,0.70
2018-08-10T17:34:28.033Z,0.90
2018-08-10T17:36:56.412Z,0.90
2018-08-10T17:39:24.699Z,1.00
2018-08-10T17:41:52.969Z,0.70
2018-08-10T17:44:21.253Z,0.70
2018-08-10T17:46:49.598Z,0.80
2018-08-10T17:49:17.848Z,0.77
2018-08-10T17:51:46.118Z,0.60
2018-08-10T17:54:14.395Z,0.70
2018-08-10T17:56:42.620Z,0.80
2018-08-10T17:59:10.943Z,0.80
2018-08-10T18:01:39.354Z,1.00
2018-08-10T18:04:08.366Z,0.80
2018-08-10T18:06:36.624Z,0.90
2018-08-10T18:09:05.661Z,0.87
2018-08-10T18:11:33.915Z,0.73
2018-08-10T18:14:02.317Z,0.50
2018-08-10T18:16:30.572Z,0.70
2018-08-10T18:18:58.905Z,0.80
2018-08-10T18:21:27.152Z,0.60
2018-08-10T18:23:55.422Z,0.80
2018-08-10T18:26:23.692Z,0.70
2018-08-10T18:28:51.926Z,0.70
2018-08-10T18:31:20.189Z,1.03
2018-08-10T18:33:49.241Z,0.60
2018-08-10T18:36:17.786Z,0.97
2018-08-10T18:38:46.035Z,0.80
2018-08-10T18:41:14.283Z,0.77
2018-08-10T18:43:42.535Z,0.67
2018-08-10T18:46:10.797Z,0.70
2018-08-10T18:48:39.059Z,0.80
2018-08-10T18:51:07.364Z,0.73
2018-08-10T18:53:35.587Z,0.90
2018-08-10T18:56:04.610Z,0.90
2018-08-10T18:58:32.917Z,0.80
2018-08-10T19:01:01.203Z,0.80
2018-08-10T19:03:29.546Z,0.80
2018-08-10T19:05:57.878Z,0.90
2018-08-10T19:08:27.628Z,0.60
2018-08-10T19:10:55.913Z,0.67
2018-08-10T19:13:24.170Z,0.70
2018-08-10T19:15:53.162Z,0.80
2018-08-10T19:18:22.671Z,0.73
2018-08-10T19:20:50.948Z,0.80
2018-08-10T19:23:19.246Z,0.87
2018-08-10T19:25:47.487Z,0.97
2018-08-10T19:28:15.780Z,0.83
2018-08-10T19:30:44.004Z,0.87
2018-08-10T19:33:13.292Z,1.10
2018-08-10T19:35:41.555Z,0.80
2018-08-10T19:38:09.797Z,0.90
2018-08-10T19:40:38.070Z,1.00
2018-08-10T19:43:06.574Z,1.10
2018-08-10T19:45:34.810Z,1.13
2018-08-10T19:48:03.086Z,0.80
2018-08-10T19:50:31.359Z,1.03
2018-08-10T19:52:59.620Z,0.90
2018-08-10T19:55:28.643Z,0.80
2018-08-10T19:57:57.153Z,1.00
2018-08-10T20:00:26.176Z,0.90
2018-08-10T20:02:55.194Z,0.90
2018-08-10T20:05:24.201Z,0.90
2018-08-10T20:07:52.489Z,0.93
2018-08-10T20:10:20.757Z,0.90
2018-08-10T20:12:49.057Z,1.20
2018-08-10T20:15:17.431Z,1.00
2018-08-10T20:17:45.574Z,1.30
2018-08-10T20:20:13.872Z,1.00
2018-08-10T20:22:42.135Z,1.10
2018-08-10T20:25:10.357Z,0.93
2018-08-10T20:27:39.370Z,1.00
2018-08-10T20:30:07.646Z,1.10
2018-08-10T20:32:35.898Z,0.80
2018-08-10T20:35:04.155Z,0.90
2018-08-10T20:37:32.416Z,1.00
2018-08-10T20:40:00.645Z,0.90
2018-08-10T20:42:28.885Z,1.00
2018-08-10T20:44:57.150Z,1.20
2018-08-10T20:47:25.382Z,1.20
2018-08-10T20:49:53.647Z,0.90
2018-08-10T20:52:21.913Z,1.07
2018-08-10T20:54:50.143Z,1.30
2018-08-10T20:57:18.391Z,1.20
2018-08-10T20:59:46.676Z,1.20
2018-08-10T21:02:14.909Z,1.20
2018-08-10T21:04:43.912Z,1.20
2018-08-10T21:07:12.162Z,1.13
2018-08-10T21:09:40.398Z,1.40
2018-08-10T21:12:08.803Z,1.20
2018-08-10T21:14:37.034Z,1.40
2018-08-10T21:17:05.282Z,1.30
2018-08-10T21:19:34.570Z,1.20
2018-08-10T21:22:02.801Z,1.30
2018-08-10T21:24:31.058Z,1.13
2018-08-10T21:26:59.375Z,1.43
2018-08-10T21:29:27.616Z,1.50
2018-08-10T21:31:55.856Z,1.37
2018-08-10T21:34:24.898Z,1.50
2018-08-10T21:36:53.149Z,1.10
2018-08-10T21:39:21.647Z,1.20
2018-08-10T21:41:49.884Z,1.50
2018-08-10T21:44:18.131Z,1.27
2018-08-10T21:46:46.523Z,1.20
2018-08-10T21:49:15.529Z,1.20
2018-08-10T21:51:43.768Z,1.57
2018-08-10T21:54:12.022Z,1.30
2018-08-10T21:56:40.335Z,1.30
2018-08-10T21:59:08.551Z,1.50
2018-08-10T22:01:36.801Z,1.40
2018-08-10T22:04:05.053Z,1.67
2018-08-10T22:06:33.399Z,1.50
2018-08-10T22:09:01.641Z,1.30
2018-08-10T22:11:29.888Z,1.20
2018-08-10T22:13:58.371Z,1.47
2018-08-10T22:19:22.385Z,1.48
2018-08-10T22:21:50.625Z,1.60
2018-08-10T22:24:19.145Z,1.43
2018-08-10T22:26:47.391Z,1.27
2018-08-10T22:29:16.403Z,1.50
2018-08-10T22:31:44.886Z,1.73
2018-08-10T22:34:13.130Z,1.40
2018-08-10T22:36:42.161Z,1.30
2018-08-10T22:39:10.419Z,1.50
2018-08-10T22:41:38.682Z,1.30
2018-08-10T22:44:07.698Z,1.30
2018-08-10T22:46:36.145Z,1.63
2018-08-10T22:49:04.424Z,1.50
2018-08-10T22:51:32.918Z,1.53
2018-08-10T22:54:02.337Z,1.30
2018-08-10T22:56:30.589Z,1.50
2018-08-10T22:58:59.670Z,1.10
2018-08-10T23:01:28.675Z,1.60
2018-08-10T23:03:57.686Z,1.53
2018-08-10T23:06:25.951Z,1.40
2018-08-10T23:08:55.015Z,1.33
2018-08-10T23:11:23.223Z,1.70
2018-08-10T23:13:51.477Z,1.90
2018-08-10T23:16:20.487Z,1.40
2018-08-10T23:18:48.741Z,1.63
2018-08-10T23:21:16.997Z,1.53
2018-08-10T23:23:45.397Z,1.80
2018-08-10T23:26:14.395Z,1.50
2018-08-10T23:28:43.402Z,1.77
2018-08-10T23:31:11.654Z,1.60
2018-08-10T23:33:40.677Z,1.83
2018-08-10T23:36:09.185Z,1.70
2018-08-10T23:38:37.418Z,1.60
2018-08-10T23:41:06.434Z,1.40
2018-08-10T23:43:34.826Z,1.80
2018-08-10T23:46:03.105Z,1.60
2018-08-10T23:48:31.336Z,1.40
2018-08-10T23:50:59.638Z,1.50
2018-08-10T23:53:27.870Z,1.77
2018-08-10T23:55:57.026Z,1.63
2018-08-10T23:58:25.393Z,1.70
